KDGW/DGW METAR and TAF weather

Enter ICAO airport designator
Station Type Date Time Source
KDGW METAR 2019/12/13 21:53 UTC NOAA

KDGW 132153Z AUTO 35009G16KT 10SM FEW026 BKN060 OVC085 02/M03 A2992 RMK AO2 WSHFT 2119 SLP152 T00171028


Station Type Date Time Source
KDGW Decoded METAR 2019/12/13 21:53 UTC NOAA

DOUGLAS CONVERSE COUNTY, WY, United States (KDGW) 42-48N 105-23W 1499M
Dec 13, 2019 - 04:53 PM EST / 2019.12.13 2153 UTC
Wind: from the N (350 degrees) at 10 MPH (9 KT) gusting to 18 MPH (16 KT):0
Visibility: 10 mile(s):0
Sky conditions: overcast
Temperature: 35.1 F (1.7 C)
Dew Point: 27.0 F (-2.8 C)
Relative Humidity: 71%
Pressure (altimeter): 29.92 in. Hg (1013 hPa)
ob: KDGW 132153Z AUTO 35009G16KT 10SM FEW026 BKN060 OVC085 02/M03 A2992 RMK AO2 WSHFT 2119 SLP152 T00171028
cycle: 22

Station Type Date Time Source
KDGW TAF UTC NOAA

Error!

Example: see airport list